Port Huron, MI

11:56 PM EDT on September 20, 2017 (GMT -0400)
Saint Clair County International

Weather History for KPHN - January, 2013

Change the Weather History Date:

Thursday, January 10, 2013

  Actual Average (KMTC) Record (KMTC)
Temperature  
Mean Temperature 30 °F -  
Max Temperature 39 °F 29 °F 59 °F (1950)
Min Temperature 21 °F 17 °F -4 °F (1962)
Degree Days  
Heating Degree Days 35    
Moisture  
Dew Point 27 °F    
Average Humidity 81    
Maximum Humidity 100    
Minimum Humidity 65    
Precipitation  
Precipitation 0.00 in - - ()
Sea Level Pressure  
Sea Level Pressure 30.47 in    
Wind  
Wind Speed 3 mph (SE)    
Max Wind Speed 9 mph    
Max Gust Speed -    
Visibility 10 miles    
Events Rain    
Averages and records for this station are not official NWS values.
T = Trace of Precipitation, MM = Missing Value Source: NWS Daily Summary

Daily Weather History Graph

Daily Weather History Graph

Search for Another Location

Airport or City:

Trip Planner

Search our weather history database for the weather conditions in past years. The results will help you decide how hot, cold, wet, or windy it might be!

Date:

Astronomy

Jan. 10, 2013 Rise Set
Actual Time 8:00 AM EST 5:15 PM EST
Civil Twilight 7:28 AM EST 5:47 PM EST
Nautical Twilight 6:53 AM EST 6:22 PM EST
Astronomical Twilight 6:19 AM EST 6:56 PM EST
Moon 6:38 AM EST (1/10) 4:22 PM EST (1/10)
Length of Visible Light 10h 18m
Length of Day
9h 15m
Waning Crescent, 2% of the Moon is Illuminated
Jan 10
Waning Crescent
Jan 11
New
Jan 18
First Quarter
Jan 26
Full
Feb 3
Last Quarter

Hourly Weather History & Observations

Time (EST) Temp. Windchill Dew Point Humidity Pressure Visibility Wind Dir Wind Speed Gust Speed Precip Events Conditions
12:17 AM 26.6 °F - 23.0 °F 86% 30.42 in 10.0 mi Calm Calm - N/A   Clear
12:38 AM 26.6 °F - 23.0 °F 86% 30.42 in 10.0 mi Calm Calm - N/A   Clear
12:57 AM 24.8 °F 17.9 °F 23.0 °F 93% 30.43 in 10.0 mi SW 5.8 mph - N/A   Clear
1:18 AM 26.6 °F 20.0 °F 24.8 °F 93% 30.45 in 10.0 mi SW 5.8 mph - N/A   Clear
1:37 AM 28.4 °F 22.2 °F 24.8 °F 86% 30.47 in 10.0 mi SSW 5.8 mph - N/A   Clear
1:57 AM 30.2 °F 24.3 °F 24.8 °F 80% 30.48 in 10.0 mi SSW 5.8 mph - N/A   Clear
2:18 AM 32.0 °F 26.4 °F 24.8 °F 75% 30.50 in 10.0 mi SW 5.8 mph - N/A   Clear
2:37 AM 32.0 °F 27.5 °F 26.6 °F 80% 30.51 in 10.0 mi SW 4.6 mph - N/A   Clear
2:58 AM 32.0 °F 27.5 °F 24.8 °F 75% 30.52 in 10.0 mi WSW 4.6 mph - N/A   Clear
3:17 AM 32.0 °F 28.7 °F 24.8 °F 75% 30.53 in 10.0 mi WSW 3.5 mph - N/A   Clear
3:37 AM 32.0 °F 28.7 °F 26.6 °F 80% 30.53 in 10.0 mi West 3.5 mph - N/A   Clear
3:58 AM 28.4 °F - 24.8 °F 86% 30.52 in 10.0 mi Calm Calm - N/A   Clear
4:17 AM 26.6 °F - 24.8 °F 93% 30.51 in 10.0 mi Calm Calm - N/A   Clear
4:37 AM 24.8 °F - 23.0 °F 93% 30.51 in 10.0 mi Calm Calm - N/A   Clear
4:57 AM 24.8 °F 20.5 °F 23.0 °F 93% 30.51 in 10.0 mi WNW 3.5 mph - N/A   Clear
5:17 AM 26.6 °F 21.2 °F 24.8 °F 93% 30.50 in 10.0 mi WNW 4.6 mph - N/A   Clear
5:38 AM 26.6 °F - 24.8 °F 93% 30.51 in 10.0 mi Calm Calm - N/A   Clear
5:57 AM 23.0 °F - 21.2 °F 93% 30.51 in 10.0 mi Calm Calm - N/A   Clear
6:17 AM 21.2 °F - 19.4 °F 93% 30.53 in 10.0 mi Calm Calm - N/A   Clear
6:37 AM 23.0 °F - 21.2 °F 93% 30.53 in 10.0 mi Calm Calm - N/A   Clear
6:57 AM 21.2 °F - 21.2 °F 100% 30.54 in 7.0 mi Calm Calm - N/A   Clear
7:18 AM 21.2 °F - 19.4 °F 93% 30.55 in 7.0 mi Calm Calm - N/A   Clear
7:37 AM 21.2 °F - 19.4 °F 93% 30.56 in 10.0 mi Calm Calm - N/A   Clear
7:58 AM 21.2 °F - 19.4 °F 93% 30.57 in 7.0 mi Calm Calm - N/A   Clear
8:17 AM 21.2 °F - 19.4 °F 93% 30.57 in 10.0 mi Calm Calm - N/A   Clear
8:38 AM 21.2 °F - 19.4 °F 93% 30.57 in 10.0 mi Calm Calm - N/A   Clear
8:57 AM 21.2 °F - 19.4 °F 93% 30.58 in 7.0 mi Calm Calm - N/A   Clear
9:17 AM 23.0 °F - 21.2 °F 93% 30.58 in 10.0 mi Calm Calm - N/A   Clear
9:38 AM 24.8 °F - 23.0 °F 93% 30.58 in 10.0 mi Calm Calm - N/A   Clear
9:57 AM 26.6 °F - 24.8 °F 93% 30.58 in 10.0 mi Calm Calm - N/A   Clear
10:18 AM 28.4 °F - 24.8 °F 86% 30.58 in 10.0 mi Calm Calm - N/A   Clear
10:37 AM 30.2 °F - 24.8 °F 80% 30.58 in 10.0 mi Calm Calm - N/A   Clear
10:58 AM 32.0 °F - 26.6 °F 80% 30.58 in 10.0 mi Calm Calm - N/A   Clear
11:17 AM 33.8 °F - 28.4 °F 81% 30.57 in 10.0 mi Calm Calm - N/A   Clear
11:37 AM 35.6 °F - 28.4 °F 75% 30.56 in 10.0 mi Calm Calm - N/A   Clear
11:58 AM 39.2 °F 35.9 °F 28.4 °F 65% 30.55 in 10.0 mi East 4.6 mph - N/A   Clear
12:17 PM 39.2 °F 35.0 °F 28.4 °F 65% 30.54 in 10.0 mi ESE 5.8 mph - N/A   Clear
12:38 PM 39.2 °F 35.9 °F 28.4 °F 65% 30.52 in 10.0 mi ESE 4.6 mph - N/A   Clear
12:57 PM 39.2 °F 34.2 °F 28.4 °F 65% 30.52 in 10.0 mi ESE 6.9 mph - N/A   Clear
1:17 PM 39.2 °F 35.0 °F 28.4 °F 65% 30.51 in 10.0 mi SE 5.8 mph - N/A   Clear
1:37 PM 39.2 °F 35.0 °F 28.4 °F 65% 30.51 in 10.0 mi SSE 5.8 mph - N/A   Clear
1:57 PM 39.2 °F 35.0 °F 28.4 °F 65% 30.49 in 10.0 mi SE 5.8 mph - N/A   Clear
2:18 PM 39.2 °F 35.0 °F 28.4 °F 65% 30.48 in 10.0 mi ESE 5.8 mph - N/A   Clear
2:37 PM 39.2 °F 33.0 °F 28.4 °F 65% 30.48 in 10.0 mi ESE 9.2 mph - N/A   Clear
2:58 PM 39.2 °F 35.9 °F 28.4 °F 65% 30.47 in 10.0 mi SE 4.6 mph - N/A   Clear
3:17 PM 39.2 °F 34.2 °F 28.4 °F 65% 30.47 in 10.0 mi SE 6.9 mph - N/A   Clear
3:37 PM 39.2 °F 33.6 °F 28.4 °F 65% 30.46 in 10.0 mi SE 8.1 mph - N/A   Clear
3:58 PM 39.2 °F 35.9 °F 28.4 °F 65% 30.46 in 10.0 mi SE 4.6 mph - N/A   Clear
4:17 PM 37.4 °F 33.8 °F 28.4 °F 70% 30.46 in 10.0 mi SE 4.6 mph - N/A   Clear
4:37 PM 37.4 °F 33.8 °F 30.2 °F 75% 30.45 in 10.0 mi SE 4.6 mph - N/A   Clear
4:57 PM 37.4 °F 32.1 °F 30.2 °F 75% 30.44 in 10.0 mi SE 6.9 mph - N/A   Clear
5:17 PM 37.4 °F 32.1 °F 30.2 °F 75% 30.44 in 10.0 mi SE 6.9 mph - N/A   Clear
5:38 PM 35.6 °F 30.7 °F 30.2 °F 81% 30.43 in 10.0 mi ESE 5.8 mph - N/A   Clear
5:57 PM 35.6 °F 29.9 °F 30.2 °F 81% 30.43 in 10.0 mi SE 6.9 mph - N/A   Clear
6:18 PM 35.6 °F 29.9 °F 30.2 °F 81% 30.42 in 10.0 mi ESE 6.9 mph - N/A   Clear
6:37 PM 35.6 °F 30.7 °F 30.2 °F 81% 30.42 in 10.0 mi SE 5.8 mph - N/A   Clear
6:57 PM 35.6 °F 29.2 °F 30.2 °F 81% 30.42 in 10.0 mi ESE 8.1 mph - N/A   Clear
7:18 PM 35.6 °F 29.2 °F 30.2 °F 81% 30.40 in 10.0 mi East 8.1 mph - N/A   Clear
7:37 PM 35.6 °F 29.9 °F 30.2 °F 81% 30.40 in 10.0 mi ESE 6.9 mph - N/A   Clear
7:58 PM 35.6 °F 28.6 °F 30.2 °F 81% 30.38 in 10.0 mi ESE 9.2 mph - N/A   Clear
8:17 PM 35.6 °F 29.2 °F 30.2 °F 81% 30.37 in 10.0 mi ESE 8.1 mph - N/A   Clear
8:38 PM 35.6 °F 29.9 °F 30.2 °F 81% 30.37 in 10.0 mi SE 6.9 mph - N/A   Clear
8:57 PM 35.6 °F 28.6 °F 32.0 °F 87% 30.36 in 10.0 mi SE 9.2 mph - N/A   Clear
9:17 PM 35.6 °F 29.9 °F 32.0 °F 87% 30.35 in 10.0 mi SE 6.9 mph - N/A   Clear
9:37 PM 35.6 °F 29.2 °F 32.0 °F 87% 30.33 in 10.0 mi ESE 8.1 mph - N/A   Clear
9:57 PM 37.4 °F 32.8 °F 32.0 °F 81% 30.31 in 10.0 mi ESE 5.8 mph - N/A   Clear
10:18 PM 37.4 °F 31.4 °F 32.0 °F 81% 30.30 in 10.0 mi SE 8.1 mph - N/A   Scattered Clouds
10:37 PM 37.4 °F 32.8 °F 32.0 °F 81% 30.28 in 10.0 mi ESE 5.8 mph - N/A   Mostly Cloudy
10:57 PM 37.4 °F 34.9 °F 32.0 °F 81% 30.27 in 7.0 mi SE 3.5 mph - N/A Rain Light Rain
11:17 PM 37.4 °F 33.8 °F 32.0 °F 81% 30.25 in 10.0 mi ESE 4.6 mph - N/A   Overcast
11:37 PM 37.4 °F 32.8 °F 32.0 °F 81% 30.24 in 10.0 mi ESE 5.8 mph - N/A Rain Light Rain
11:58 PM 37.4 °F 30.8 °F 32.0 °F 81% 30.22 in 10.0 mi ESE 9.2 mph - N/A Rain Light Rain